sensor_id;sensor_type;location;lat;lon;timestamp;P1;durP1;ratioP1;P2;durP2;ratioP2
12970;SDS011;6550;48.650;8.774;2023-04-06T00:02:10;4.07;;;3.47;;
12970;SDS011;6550;48.650;8.774;2023-04-06T00:04:37;4.78;;;3.53;;
12970;SDS011;6550;48.650;8.774;2023-04-06T00:07:03;6.47;;;3.50;;
12970;SDS011;6550;48.650;8.774;2023-04-06T00:09:30;4.77;;;3.60;;
12970;SDS011;6550;48.650;8.774;2023-04-06T00:11:57;5.93;;;3.53;;
12970;SDS011;6550;48.650;8.774;2023-04-06T00:14:29;4.93;;;3.73;;
12970;SDS011;6550;48.650;8.774;2023-04-06T00:16:58;3.57;;;3.27;;
12970;SDS011;6550;48.650;8.774;2023-04-06T00:19:25;3.67;;;3.30;;
12970;SDS011;6550;48.650;8.774;2023-04-06T00:21:54;7.13;;;3.70;;
12970;SDS011;6550;48.650;8.774;2023-04-06T00:24:23;4.00;;;3.60;;
12970;SDS011;6550;48.650;8.774;2023-04-06T00:26:49;4.13;;;3.23;;
12970;SDS011;6550;48.650;8.774;2023-04-06T00:29:16;6.37;;;4.17;;
12970;SDS011;6550;48.650;8.774;2023-04-06T00:31:43;4.60;;;4.20;;
12970;SDS011;6550;48.650;8.774;2023-04-06T00:34:12;4.97;;;3.57;;
12970;SDS011;6550;48.650;8.774;2023-04-06T00:36:41;5.23;;;3.80;;
12970;SDS011;6550;48.650;8.774;2023-04-06T00:39:10;5.00;;;3.97;;
12970;SDS011;6550;48.650;8.774;2023-04-06T00:41:37;4.53;;;3.80;;
12970;SDS011;6550;48.650;8.774;2023-04-06T00:44:06;4.93;;;3.97;;
12970;SDS011;6550;48.650;8.774;2023-04-06T00:46:33;4.63;;;4.03;;
12970;SDS011;6550;48.650;8.774;2023-04-06T00:49:00;4.95;;;4.18;;
12970;SDS011;6550;48.650;8.774;2023-04-06T00:51:27;3.80;;;3.23;;
12970;SDS011;6550;48.650;8.774;2023-04-06T00:53:53;6.63;;;3.90;;
12970;SDS011;6550;48.650;8.774;2023-04-06T00:56:23;5.20;;;3.87;;
12970;SDS011;6550;48.650;8.774;2023-04-06T00:58:54;4.93;;;4.20;;
12970;SDS011;6550;48.650;8.774;2023-04-06T01:01:23;5.17;;;4.17;;
12970;SDS011;6550;48.650;8.774;2023-04-06T01:03:50;4.63;;;4.00;;
12970;SDS011;6550;48.650;8.774;2023-04-06T01:06:20;4.43;;;3.83;;
12970;SDS011;6550;48.650;8.774;2023-04-06T01:08:46;4.97;;;4.00;;
12970;SDS011;6550;48.650;8.774;2023-04-06T01:11:13;4.57;;;4.00;;
12970;SDS011;6550;48.650;8.774;2023-04-06T01:13:40;4.60;;;3.83;;
12970;SDS011;6550;48.650;8.774;2023-04-06T01:16:09;4.90;;;4.20;;
12970;SDS011;6550;48.650;8.774;2023-04-06T01:18:37;4.43;;;3.90;;
12970;SDS011;6550;48.650;8.774;2023-04-06T01:21:08;3.97;;;3.53;;
12970;SDS011;6550;48.650;8.774;2023-04-06T01:23:44;4.43;;;4.03;;
12970;SDS011;6550;48.650;8.774;2023-04-06T01:26:12;4.30;;;3.90;;
12970;SDS011;6550;48.650;8.774;2023-04-06T01:28:39;4.70;;;4.20;;
12970;SDS011;6550;48.650;8.774;2023-04-06T01:31:07;4.23;;;3.80;;
12970;SDS011;6550;48.650;8.774;2023-04-06T01:33:34;4.85;;;4.25;;
12970;SDS011;6550;48.650;8.774;2023-04-06T01:36:02;3.97;;;3.27;;
12970;SDS011;6550;48.650;8.774;2023-04-06T01:38:29;3.93;;;3.50;;
12970;SDS011;6550;48.650;8.774;2023-04-06T01:41:01;4.70;;;3.60;;
12970;SDS011;6550;48.650;8.774;2023-04-06T01:43:28;3.97;;;3.47;;
12970;SDS011;6550;48.650;8.774;2023-04-06T01:45:55;4.80;;;3.63;;
12970;SDS011;6550;48.650;8.774;2023-04-06T01:48:25;4.30;;;3.23;;
12970;SDS011;6550;48.650;8.774;2023-04-06T01:50:52;7.30;;;3.60;;
12970;SDS011;6550;48.650;8.774;2023-04-06T01:53:20;4.63;;;3.43;;
12970;SDS011;6550;48.650;8.774;2023-04-06T01:55:47;4.27;;;3.43;;
12970;SDS011;6550;48.650;8.774;2023-04-06T01:58:13;4.17;;;3.27;;
12970;SDS011;6550;48.650;8.774;2023-04-06T02:00:40;4.80;;;3.70;;
12970;SDS011;6550;48.650;8.774;2023-04-06T02:03:12;6.00;;;3.72;;
12970;SDS011;6550;48.650;8.774;2023-04-06T02:05:43;4.23;;;3.70;;
12970;SDS011;6550;48.650;8.774;2023-04-06T02:08:10;4.17;;;3.77;;
12970;SDS011;6550;48.650;8.774;2023-04-06T02:10:36;3.60;;;3.30;;
12970;SDS011;6550;48.650;8.774;2023-04-06T02:13:03;4.87;;;3.93;;
12970;SDS011;6550;48.650;8.774;2023-04-06T02:15:32;5.57;;;4.33;;
12970;SDS011;6550;48.650;8.774;2023-04-06T02:18:01;6.83;;;3.73;;
12970;SDS011;6550;48.650;8.774;2023-04-06T02:20:28;3.70;;;3.40;;
12970;SDS011;6550;48.650;8.774;2023-04-06T02:22:56;5.27;;;4.10;;
12970;SDS011;6550;48.650;8.774;2023-04-06T02:25:27;9.20;;;3.93;;
12970;SDS011;6550;48.650;8.774;2023-04-06T02:27:54;4.33;;;3.93;;
12970;SDS011;6550;48.650;8.774;2023-04-06T02:30:21;4.57;;;3.60;;
12970;SDS011;6550;48.650;8.774;2023-04-06T02:32:48;3.73;;;3.43;;
12970;SDS011;6550;48.650;8.774;2023-04-06T02:35:19;4.97;;;3.83;;
12970;SDS011;6550;48.650;8.774;2023-04-06T02:37:46;4.20;;;3.80;;
12970;SDS011;6550;48.650;8.774;2023-04-06T02:40:16;4.10;;;3.70;;
12970;SDS011;6550;48.650;8.774;2023-04-06T02:42:47;5.00;;;4.07;;
12970;SDS011;6550;48.650;8.774;2023-04-06T02:45:19;3.67;;;3.27;;
12970;SDS011;6550;48.650;8.774;2023-04-06T02:47:48;4.27;;;3.53;;
12970;SDS011;6550;48.650;8.774;2023-04-06T02:50:17;4.87;;;3.73;;
12970;SDS011;6550;48.650;8.774;2023-04-06T02:52:46;4.87;;;3.93;;
12970;SDS011;6550;48.650;8.774;2023-04-06T02:55:13;4.13;;;3.67;;
12970;SDS011;6550;48.650;8.774;2023-04-06T02:57:42;3.77;;;3.30;;
12970;SDS011;6550;48.650;8.774;2023-04-06T03:00:09;3.93;;;3.33;;
12970;SDS011;6550;48.650;8.774;2023-04-06T03:02:36;4.60;;;3.67;;
12970;SDS011;6550;48.650;8.774;2023-04-06T03:05:03;3.80;;;3.20;;
12970;SDS011;6550;48.650;8.774;2023-04-06T03:07:33;3.97;;;3.40;;
12970;SDS011;6550;48.650;8.774;2023-04-06T03:10:04;4.27;;;3.10;;
12970;SDS011;6550;48.650;8.774;2023-04-06T03:12:31;4.73;;;3.50;;
12970;SDS011;6550;48.650;8.774;2023-04-06T03:15:01;4.30;;;3.40;;
12970;SDS011;6550;48.650;8.774;2023-04-06T03:17:27;4.17;;;3.50;;
12970;SDS011;6550;48.650;8.774;2023-04-06T03:19:54;3.77;;;3.47;;
12970;SDS011;6550;48.650;8.774;2023-04-06T03:22:23;3.37;;;3.07;;
12970;SDS011;6550;48.650;8.774;2023-04-06T03:24:50;4.40;;;3.70;;
12970;SDS011;6550;48.650;8.774;2023-04-06T03:27:19;3.60;;;3.30;;
12970;SDS011;6550;48.650;8.774;2023-04-06T03:29:48;4.60;;;3.90;;
12970;SDS011;6550;48.650;8.774;2023-04-06T03:32:15;3.63;;;3.30;;
12970;SDS011;6550;48.650;8.774;2023-04-06T03:34:42;3.60;;;3.30;;
12970;SDS011;6550;48.650;8.774;2023-04-06T03:37:08;4.80;;;3.55;;
12970;SDS011;6550;48.650;8.774;2023-04-06T03:39:37;3.97;;;3.57;;
12970;SDS011;6550;48.650;8.774;2023-04-06T03:42:04;4.07;;;3.40;;
12970;SDS011;6550;48.650;8.774;2023-04-06T03:44:33;4.43;;;3.40;;
12970;SDS011;6550;48.650;8.774;2023-04-06T03:47:00;4.33;;;3.40;;
12970;SDS011;6550;48.650;8.774;2023-04-06T03:49:32;4.00;;;3.33;;
12970;SDS011;6550;48.650;8.774;2023-04-06T03:52:00;4.20;;;3.23;;
12970;SDS011;6550;48.650;8.774;2023-04-06T03:54:27;4.33;;;3.80;;
12970;SDS011;6550;48.650;8.774;2023-04-06T03:56:54;4.97;;;3.70;;
12970;SDS011;6550;48.650;8.774;2023-04-06T03:59:21;3.90;;;3.50;;
12970;SDS011;6550;48.650;8.774;2023-04-06T04:01:48;4.13;;;3.50;;
12970;SDS011;6550;48.650;8.774;2023-04-06T04:04:15;3.43;;;3.13;;
12970;SDS011;6550;48.650;8.774;2023-04-06T04:06:41;5.60;;;3.40;;
12970;SDS011;6550;48.650;8.774;2023-04-06T04:09:10;4.37;;;3.50;;
12970;SDS011;6550;48.650;8.774;2023-04-06T04:11:42;3.97;;;3.20;;
12970;SDS011;6550;48.650;8.774;2023-04-06T04:14:09;6.00;;;4.27;;
12970;SDS011;6550;48.650;8.774;2023-04-06T04:16:38;3.83;;;3.30;;
12970;SDS011;6550;48.650;8.774;2023-04-06T04:19:05;4.90;;;3.67;;
12970;SDS011;6550;48.650;8.774;2023-04-06T04:21:41;5.47;;;3.50;;
12970;SDS011;6550;48.650;8.774;2023-04-06T04:24:12;3.70;;;3.37;;
12970;SDS011;6550;48.650;8.774;2023-04-06T04:26:39;4.38;;;3.92;;
12970;SDS011;6550;48.650;8.774;2023-04-06T04:29:06;3.77;;;3.47;;
12970;SDS011;6550;48.650;8.774;2023-04-06T04:31:36;4.53;;;3.80;;
12970;SDS011;6550;48.650;8.774;2023-04-06T04:34:03;3.67;;;3.37;;
12970;SDS011;6550;48.650;8.774;2023-04-06T04:36:33;5.03;;;3.60;;
12970;SDS011;6550;48.650;8.774;2023-04-06T04:38:59;4.03;;;3.63;;
12970;SDS011;6550;48.650;8.774;2023-04-06T04:41:28;3.70;;;3.40;;
12970;SDS011;6550;48.650;8.774;2023-04-06T04:43:57;4.43;;;3.97;;
12970;SDS011;6550;48.650;8.774;2023-04-06T04:46:27;4.10;;;3.70;;
12970;SDS011;6550;48.650;8.774;2023-04-06T04:48:56;4.20;;;3.80;;
12970;SDS011;6550;48.650;8.774;2023-04-06T04:51:22;5.07;;;3.57;;
12970;SDS011;6550;48.650;8.774;2023-04-06T04:53:50;3.77;;;3.23;;
12970;SDS011;6550;48.650;8.774;2023-04-06T04:56:17;5.73;;;3.33;;
12970;SDS011;6550;48.650;8.774;2023-04-06T04:58:44;3.17;;;2.80;;
12970;SDS011;6550;48.650;8.774;2023-04-06T05:01:13;4.00;;;3.40;;
12970;SDS011;6550;48.650;8.774;2023-04-06T05:03:43;4.00;;;3.60;;
12970;SDS011;6550;48.650;8.774;2023-04-06T05:06:09;3.80;;;3.40;;
12970;SDS011;6550;48.650;8.774;2023-04-06T05:08:38;3.57;;;3.23;;
12970;SDS011;6550;48.650;8.774;2023-04-06T05:11:08;4.23;;;3.73;;
12970;SDS011;6550;48.650;8.774;2023-04-06T05:13:35;3.73;;;2.90;;
12970;SDS011;6550;48.650;8.774;2023-04-06T05:16:02;4.43;;;3.60;;
12970;SDS011;6550;48.650;8.774;2023-04-06T05:18:29;4.07;;;3.67;;
12970;SDS011;6550;48.650;8.774;2023-04-06T05:20:58;3.93;;;3.53;;
12970;SDS011;6550;48.650;8.774;2023-04-06T05:23:25;3.40;;;3.10;;
12970;SDS011;6550;48.650;8.774;2023-04-06T05:25:52;4.03;;;3.30;;
12970;SDS011;6550;48.650;8.774;2023-04-06T05:28:19;3.50;;;3.17;;
12970;SDS011;6550;48.650;8.774;2023-04-06T05:30:46;3.77;;;3.23;;
12970;SDS011;6550;48.650;8.774;2023-04-06T05:33:12;4.70;;;3.97;;
12970;SDS011;6550;48.650;8.774;2023-04-06T05:35:40;4.83;;;3.20;;
12970;SDS011;6550;48.650;8.774;2023-04-06T05:38:09;3.87;;;3.27;;
12970;SDS011;6550;48.650;8.774;2023-04-06T05:40:38;3.93;;;3.50;;
12970;SDS011;6550;48.650;8.774;2023-04-06T05:43:07;3.77;;;3.23;;
12970;SDS011;6550;48.650;8.774;2023-04-06T05:45:36;4.20;;;3.33;;
12970;SDS011;6550;48.650;8.774;2023-04-06T05:48:03;3.83;;;3.53;;
12970;SDS011;6550;48.650;8.774;2023-04-06T05:50:29;4.73;;;3.00;;
12970;SDS011;6550;48.650;8.774;2023-04-06T05:52:56;4.53;;;3.60;;
12970;SDS011;6550;48.650;8.774;2023-04-06T05:55:23;6.50;;;4.10;;
12970;SDS011;6550;48.650;8.774;2023-04-06T05:57:50;5.50;;;3.80;;
12970;SDS011;6550;48.650;8.774;2023-04-06T06:00:17;4.10;;;3.67;;
12970;SDS011;6550;48.650;8.774;2023-04-06T06:02:48;4.13;;;3.73;;
12970;SDS011;6550;48.650;8.774;2023-04-06T06:05:17;4.90;;;3.70;;
12970;SDS011;6550;48.650;8.774;2023-04-06T06:07:44;6.17;;;3.37;;
12970;SDS011;6550;48.650;8.774;2023-04-06T06:10:13;4.27;;;3.83;;
12970;SDS011;6550;48.650;8.774;2023-04-06T06:12:40;4.10;;;3.57;;
12970;SDS011;6550;48.650;8.774;2023-04-06T06:15:08;5.23;;;3.40;;
12970;SDS011;6550;48.650;8.774;2023-04-06T06:17:35;6.27;;;4.20;;
12970;SDS011;6550;48.650;8.774;2023-04-06T06:20:05;6.17;;;4.13;;
12970;SDS011;6550;48.650;8.774;2023-04-06T06:22:34;5.40;;;4.03;;
12970;SDS011;6550;48.650;8.774;2023-04-06T06:25:03;4.60;;;3.77;;
12970;SDS011;6550;48.650;8.774;2023-04-06T06:27:33;5.30;;;4.00;;
12970;SDS011;6550;48.650;8.774;2023-04-06T06:30:00;5.43;;;4.40;;
12970;SDS011;6550;48.650;8.774;2023-04-06T06:32:26;5.47;;;4.33;;
12970;SDS011;6550;48.650;8.774;2023-04-06T06:34:53;5.53;;;4.60;;
12970;SDS011;6550;48.650;8.774;2023-04-06T06:37:20;5.93;;;4.10;;
12970;SDS011;6550;48.650;8.774;2023-04-06T06:39:47;6.90;;;4.10;;
12970;SDS011;6550;48.650;8.774;2023-04-06T06:42:16;6.07;;;4.40;;
12970;SDS011;6550;48.650;8.774;2023-04-06T06:44:45;5.28;;;4.78;;
12970;SDS011;6550;48.650;8.774;2023-04-06T06:47:12;5.47;;;4.50;;
12970;SDS011;6550;48.650;8.774;2023-04-06T06:49:41;5.00;;;4.50;;
12970;SDS011;6550;48.650;8.774;2023-04-06T06:52:08;5.47;;;4.20;;
12970;SDS011;6550;48.650;8.774;2023-04-06T06:54:35;5.10;;;4.40;;
12970;SDS011;6550;48.650;8.774;2023-04-06T06:57:03;6.40;;;4.97;;
12970;SDS011;6550;48.650;8.774;2023-04-06T06:59:32;5.17;;;4.50;;
12970;SDS011;6550;48.650;8.774;2023-04-06T07:01:59;5.37;;;4.47;;
12970;SDS011;6550;48.650;8.774;2023-04-06T07:04:26;6.07;;;4.80;;
12970;SDS011;6550;48.650;8.774;2023-04-06T07:06:56;4.73;;;4.33;;
12970;SDS011;6550;48.650;8.774;2023-04-06T07:09:25;6.27;;;4.60;;
12970;SDS011;6550;48.650;8.774;2023-04-06T07:11:52;6.27;;;4.80;;
12970;SDS011;6550;48.650;8.774;2023-04-06T07:14:19;5.40;;;4.40;;
12970;SDS011;6550;48.650;8.774;2023-04-06T07:16:46;5.27;;;4.47;;
12970;SDS011;6550;48.650;8.774;2023-04-06T07:19:14;6.03;;;4.70;;
12970;SDS011;6550;48.650;8.774;2023-04-06T07:21:41;7.20;;;4.30;;
12970;SDS011;6550;48.650;8.774;2023-04-06T07:24:11;5.00;;;4.50;;
12970;SDS011;6550;48.650;8.774;2023-04-06T07:26:37;6.47;;;4.80;;
12970;SDS011;6550;48.650;8.774;2023-04-06T07:29:04;7.17;;;4.33;;
12970;SDS011;6550;48.650;8.774;2023-04-06T07:31:31;6.30;;;4.63;;
12970;SDS011;6550;48.650;8.774;2023-04-06T07:33:58;5.07;;;4.60;;
12970;SDS011;6550;48.650;8.774;2023-04-06T07:36:24;5.20;;;4.13;;
12970;SDS011;6550;48.650;8.774;2023-04-06T07:38:51;4.73;;;4.20;;
12970;SDS011;6550;48.650;8.774;2023-04-06T07:41:18;7.13;;;4.20;;
12970;SDS011;6550;48.650;8.774;2023-04-06T07:43:45;5.03;;;4.07;;
12970;SDS011;6550;48.650;8.774;2023-04-06T07:46:14;5.03;;;4.25;;
12970;SDS011;6550;48.650;8.774;2023-04-06T07:48:41;4.63;;;4.23;;
12970;SDS011;6550;48.650;8.774;2023-04-06T07:51:08;4.80;;;4.30;;
12970;SDS011;6550;48.650;8.774;2023-04-06T07:53:40;4.13;;;3.70;;
12970;SDS011;6550;48.650;8.774;2023-04-06T07:56:09;5.80;;;4.00;;
12970;SDS011;6550;48.650;8.774;2023-04-06T07:58:41;4.47;;;3.90;;
12970;SDS011;6550;48.650;8.774;2023-04-06T08:01:08;5.23;;;4.10;;
12970;SDS011;6550;48.650;8.774;2023-04-06T08:03:35;4.63;;;3.90;;
12970;SDS011;6550;48.650;8.774;2023-04-06T08:06:04;4.80;;;3.43;;
12970;SDS011;6550;48.650;8.774;2023-04-06T08:08:31;4.20;;;3.60;;
12970;SDS011;6550;48.650;8.774;2023-04-06T08:11:01;4.07;;;3.60;;
12970;SDS011;6550;48.650;8.774;2023-04-06T08:13:28;4.50;;;4.10;;
12970;SDS011;6550;48.650;8.774;2023-04-06T08:15:58;5.03;;;4.00;;
12970;SDS011;6550;48.650;8.774;2023-04-06T08:18:26;4.70;;;4.03;;
12970;SDS011;6550;48.650;8.774;2023-04-06T08:20:54;4.63;;;4.03;;
12970;SDS011;6550;48.650;8.774;2023-04-06T08:23:23;3.97;;;3.58;;
12970;SDS011;6550;48.650;8.774;2023-04-06T08:25:50;3.93;;;3.43;;
12970;SDS011;6550;48.650;8.774;2023-04-06T08:28:18;4.07;;;3.50;;
12970;SDS011;6550;48.650;8.774;2023-04-06T08:30:46;4.27;;;3.73;;
12970;SDS011;6550;48.650;8.774;2023-04-06T08:33:13;5.50;;;3.50;;
12970;SDS011;6550;48.650;8.774;2023-04-06T08:35:42;5.20;;;4.27;;
12970;SDS011;6550;48.650;8.774;2023-04-06T08:38:09;3.80;;;3.50;;
12970;SDS011;6550;48.650;8.774;2023-04-06T08:40:39;4.97;;;3.85;;
12970;SDS011;6550;48.650;8.774;2023-04-06T08:43:06;4.57;;;3.80;;
12970;SDS011;6550;48.650;8.774;2023-04-06T08:45:40;4.20;;;3.30;;
12970;SDS011;6550;48.650;8.774;2023-04-06T08:48:10;4.30;;;3.43;;
12970;SDS011;6550;48.650;8.774;2023-04-06T08:50:40;5.17;;;3.80;;
12970;SDS011;6550;48.650;8.774;2023-04-06T08:53:10;4.30;;;3.90;;
12970;SDS011;6550;48.650;8.774;2023-04-06T08:55:38;4.23;;;3.47;;
12970;SDS011;6550;48.650;8.774;2023-04-06T08:58:06;3.47;;;3.17;;
12970;SDS011;6550;48.650;8.774;2023-04-06T09:00:36;3.73;;;3.40;;
12970;SDS011;6550;48.650;8.774;2023-04-06T09:03:05;4.03;;;3.63;;
12970;SDS011;6550;48.650;8.774;2023-04-06T09:05:36;4.00;;;3.40;;
12970;SDS011;6550;48.650;8.774;2023-04-06T09:08:04;3.77;;;3.43;;
12970;SDS011;6550;48.650;8.774;2023-04-06T09:10:32;4.83;;;3.67;;
12970;SDS011;6550;48.650;8.774;2023-04-06T09:13:05;4.30;;;3.63;;
12970;SDS011;6550;48.650;8.774;2023-04-06T09:15:35;4.40;;;3.37;;
12970;SDS011;6550;48.650;8.774;2023-04-06T09:18:02;4.33;;;3.27;;
12970;SDS011;6550;48.650;8.774;2023-04-06T09:20:32;3.57;;;3.23;;
12970;SDS011;6550;48.650;8.774;2023-04-06T09:23:01;3.20;;;2.87;;
12970;SDS011;6550;48.650;8.774;2023-04-06T09:25:27;3.10;;;2.80;;
12970;SDS011;6550;48.650;8.774;2023-04-06T09:27:58;3.33;;;2.93;;
12970;SDS011;6550;48.650;8.774;2023-04-06T09:30:29;8.90;;;3.97;;
12970;SDS011;6550;48.650;8.774;2023-04-06T09:32:56;35.03;;;5.97;;
12970;SDS011;6550;48.650;8.774;2023-04-06T09:35:25;37.07;;;4.47;;
12970;SDS011;6550;48.650;8.774;2023-04-06T09:37:53;15.80;;;3.95;;
12970;SDS011;6550;48.650;8.774;2023-04-06T09:40:23;11.03;;;3.30;;
12970;SDS011;6550;48.650;8.774;2023-04-06T09:42:50;7.23;;;2.70;;
12970;SDS011;6550;48.650;8.774;2023-04-06T09:45:19;9.30;;;3.07;;
12970;SDS011;6550;48.650;8.774;2023-04-06T09:47:47;9.27;;;2.87;;
12970;SDS011;6550;48.650;8.774;2023-04-06T09:50:16;7.97;;;3.30;;
12970;SDS011;6550;48.650;8.774;2023-04-06T09:52:49;7.65;;;3.00;;
12970;SDS011;6550;48.650;8.774;2023-04-06T09:55:25;6.53;;;2.63;;
12970;SDS011;6550;48.650;8.774;2023-04-06T09:58:06;3.90;;;2.30;;
12970;SDS011;6550;48.650;8.774;2023-04-06T10:06:36;3.53;;;2.33;;
12970;SDS011;6550;48.650;8.774;2023-04-06T10:09:04;3.67;;;2.50;;
12970;SDS011;6550;48.650;8.774;2023-04-06T10:11:34;2.50;;;2.10;;
12970;SDS011;6550;48.650;8.774;2023-04-06T10:14:03;2.33;;;1.93;;
12970;SDS011;6550;48.650;8.774;2023-04-06T10:16:33;3.20;;;2.20;;
12970;SDS011;6550;48.650;8.774;2023-04-06T10:19:13;3.83;;;2.10;;
12970;SDS011;6550;48.650;8.774;2023-04-06T10:21:54;2.43;;;2.10;;
12970;SDS011;6550;48.650;8.774;2023-04-06T10:24:29;2.42;;;2.22;;
12970;SDS011;6550;48.650;8.774;2023-04-06T10:27:06;2.67;;;2.30;;
12970;SDS011;6550;48.650;8.774;2023-04-06T10:29:44;2.83;;;2.27;;
12970;SDS011;6550;48.650;8.774;2023-04-06T10:32:14;2.30;;;1.87;;
12970;SDS011;6550;48.650;8.774;2023-04-06T10:34:41;2.83;;;2.10;;
12970;SDS011;6550;48.650;8.774;2023-04-06T10:37:15;3.90;;;2.30;;
12970;SDS011;6550;48.650;8.774;2023-04-06T10:39:46;2.70;;;2.37;;
12970;SDS011;6550;48.650;8.774;2023-04-06T10:42:24;2.47;;;2.27;;
12970;SDS011;6550;48.650;8.774;2023-04-06T10:44:51;2.50;;;2.30;;
12970;SDS011;6550;48.650;8.774;2023-04-06T10:47:18;3.33;;;2.30;;
12970;SDS011;6550;48.650;8.774;2023-04-06T10:49:49;3.50;;;1.93;;
12970;SDS011;6550;48.650;8.774;2023-04-06T10:52:16;2.10;;;1.90;;
12970;SDS011;6550;48.650;8.774;2023-04-06T10:54:45;2.17;;;1.97;;
12970;SDS011;6550;48.650;8.774;2023-04-06T10:57:15;2.33;;;1.95;;
12970;SDS011;6550;48.650;8.774;2023-04-06T10:59:43;2.23;;;1.90;;
12970;SDS011;6550;48.650;8.774;2023-04-06T11:02:18;3.33;;;1.87;;
12970;SDS011;6550;48.650;8.774;2023-04-06T11:04:56;2.37;;;2.17;;
12970;SDS011;6550;48.650;8.774;2023-04-06T11:07:26;2.43;;;1.97;;
12970;SDS011;6550;48.650;8.774;2023-04-06T11:09:57;2.00;;;1.73;;
12970;SDS011;6550;48.650;8.774;2023-04-06T11:12:41;3.33;;;1.80;;
12970;SDS011;6550;48.650;8.774;2023-04-06T11:15:11;2.40;;;1.93;;
12970;SDS011;6550;48.650;8.774;2023-04-06T11:17:42;2.40;;;2.20;;
12970;SDS011;6550;48.650;8.774;2023-04-06T11:20:11;3.57;;;2.10;;
12970;SDS011;6550;48.650;8.774;2023-04-06T11:22:48;2.40;;;1.80;;
12970;SDS011;6550;48.650;8.774;2023-04-06T11:25:18;2.00;;;1.80;;
12970;SDS011;6550;48.650;8.774;2023-04-06T11:27:50;2.20;;;2.00;;
12970;SDS011;6550;48.650;8.774;2023-04-06T11:30:20;2.08;;;1.88;;
12970;SDS011;6550;48.650;8.774;2023-04-06T11:32:47;2.50;;;1.80;;
12970;SDS011;6550;48.650;8.774;2023-04-06T11:35:21;3.43;;;1.67;;
12970;SDS011;6550;48.650;8.774;2023-04-06T11:37:49;1.60;;;1.50;;
12970;SDS011;6550;48.650;8.774;2023-04-06T11:40:23;1.93;;;1.73;;
12970;SDS011;6550;48.650;8.774;2023-04-06T11:42:54;2.50;;;2.03;;
12970;SDS011;6550;48.650;8.774;2023-04-06T11:45:22;2.43;;;1.70;;
12970;SDS011;6550;48.650;8.774;2023-04-06T11:47:55;1.73;;;1.63;;
12970;SDS011;6550;48.650;8.774;2023-04-06T11:50:31;3.20;;;1.70;;
12970;SDS011;6550;48.650;8.774;2023-04-06T11:53:03;2.73;;;1.37;;
12970;SDS011;6550;48.650;8.774;2023-04-06T11:55:36;2.40;;;1.80;;
12970;SDS011;6550;48.650;8.774;2023-04-06T11:58:06;1.63;;;1.53;;
12970;SDS011;6550;48.650;8.774;2023-04-06T12:00:34;2.25;;;1.80;;
12970;SDS011;6550;48.650;8.774;2023-04-06T12:03:01;6.67;;;2.27;;
12970;SDS011;6550;48.650;8.774;2023-04-06T12:05:32;2.20;;;1.63;;
12970;SDS011;6550;48.650;8.774;2023-04-06T12:07:59;1.77;;;1.63;;
12970;SDS011;6550;48.650;8.774;2023-04-06T12:10:33;2.67;;;1.63;;
12970;SDS011;6550;48.650;8.774;2023-04-06T12:13:00;2.97;;;1.80;;
12970;SDS011;6550;48.650;8.774;2023-04-06T12:15:26;3.97;;;1.90;;
12970;SDS011;6550;48.650;8.774;2023-04-06T12:17:53;1.97;;;1.77;;
12970;SDS011;6550;48.650;8.774;2023-04-06T12:20:20;2.27;;;2.07;;
12970;SDS011;6550;48.650;8.774;2023-04-06T12:22:52;2.53;;;1.60;;
12970;SDS011;6550;48.650;8.774;2023-04-06T12:25:21;4.60;;;1.70;;
12970;SDS011;6550;48.650;8.774;2023-04-06T12:27:50;2.93;;;1.70;;
12970;SDS011;6550;48.650;8.774;2023-04-06T12:30:17;3.57;;;1.93;;
12970;SDS011;6550;48.650;8.774;2023-04-06T12:32:44;2.75;;;1.77;;
12970;SDS011;6550;48.650;8.774;2023-04-06T12:35:14;1.97;;;1.60;;
12970;SDS011;6550;48.650;8.774;2023-04-06T12:37:41;2.70;;;1.90;;
12970;SDS011;6550;48.650;8.774;2023-04-06T12:40:08;2.10;;;1.90;;
12970;SDS011;6550;48.650;8.774;2023-04-06T12:42:40;2.20;;;2.00;;
12970;SDS011;6550;48.650;8.774;2023-04-06T12:45:08;3.33;;;2.03;;
12970;SDS011;6550;48.650;8.774;2023-04-06T12:47:35;3.07;;;1.90;;
12970;SDS011;6550;48.650;8.774;2023-04-06T12:50:04;1.90;;;1.60;;
12970;SDS011;6550;48.650;8.774;2023-04-06T12:52:32;3.00;;;1.95;;
12970;SDS011;6550;48.650;8.774;2023-04-06T12:55:01;2.10;;;1.70;;
12970;SDS011;6550;48.650;8.774;2023-04-06T12:57:29;2.63;;;1.70;;
12970;SDS011;6550;48.650;8.774;2023-04-06T12:59:57;4.57;;;1.80;;
12970;SDS011;6550;48.650;8.774;2023-04-06T13:02:27;3.28;;;2.05;;
12970;SDS011;6550;48.650;8.774;2023-04-06T13:04:56;4.97;;;2.00;;
12970;SDS011;6550;48.650;8.774;2023-04-06T13:07:25;2.20;;;1.80;;
12970;SDS011;6550;48.650;8.774;2023-04-06T13:09:54;2.53;;;2.00;;
12970;SDS011;6550;48.650;8.774;2023-04-06T13:12:21;4.43;;;2.00;;
12970;SDS011;6550;48.650;8.774;2023-04-06T13:14:48;4.53;;;1.70;;
12970;SDS011;6550;48.650;8.774;2023-04-06T13:17:18;3.10;;;1.80;;
12970;SDS011;6550;48.650;8.774;2023-04-06T13:19:47;2.73;;;1.80;;
12970;SDS011;6550;48.650;8.774;2023-04-06T13:22:15;1.70;;;1.60;;
12970;SDS011;6550;48.650;8.774;2023-04-06T13:24:42;1.70;;;1.57;;
12970;SDS011;6550;48.650;8.774;2023-04-06T13:27:13;1.77;;;1.60;;
12970;SDS011;6550;48.650;8.774;2023-04-06T13:29:40;3.37;;;1.70;;
12970;SDS011;6550;48.650;8.774;2023-04-06T13:32:09;4.33;;;1.80;;
12970;SDS011;6550;48.650;8.774;2023-04-06T13:34:36;4.33;;;2.67;;
12970;SDS011;6550;48.650;8.774;2023-04-06T13:37:03;2.87;;;2.30;;
12970;SDS011;6550;48.650;8.774;2023-04-06T13:39:31;6.33;;;2.10;;
12970;SDS011;6550;48.650;8.774;2023-04-06T13:42:00;5.80;;;2.17;;
12970;SDS011;6550;48.650;8.774;2023-04-06T13:44:29;7.20;;;2.37;;
12970;SDS011;6550;48.650;8.774;2023-04-06T13:46:56;5.30;;;2.40;;
12970;SDS011;6550;48.650;8.774;2023-04-06T13:49:26;3.97;;;2.00;;
12970;SDS011;6550;48.650;8.774;2023-04-06T13:51:56;6.20;;;2.10;;
12970;SDS011;6550;48.650;8.774;2023-04-06T13:54:23;4.77;;;2.10;;
12970;SDS011;6550;48.650;8.774;2023-04-06T13:56:52;3.13;;;2.30;;
12970;SDS011;6550;48.650;8.774;2023-04-06T13:59:19;5.83;;;2.43;;
12970;SDS011;6550;48.650;8.774;2023-04-06T14:01:45;4.50;;;2.33;;
12970;SDS011;6550;48.650;8.774;2023-04-06T14:04:13;12.57;;;2.90;;
12970;SDS011;6550;48.650;8.774;2023-04-06T14:06:40;17.13;;;3.30;;
12970;SDS011;6550;48.650;8.774;2023-04-06T14:09:07;11.80;;;3.10;;
12970;SDS011;6550;48.650;8.774;2023-04-06T14:11:33;12.13;;;2.90;;
12970;SDS011;6550;48.650;8.774;2023-04-06T14:14:01;12.97;;;2.80;;
12970;SDS011;6550;48.650;8.774;2023-04-06T14:16:28;8.63;;;2.73;;
12970;SDS011;6550;48.650;8.774;2023-04-06T14:18:57;14.93;;;2.83;;
12970;SDS011;6550;48.650;8.774;2023-04-06T14:21:24;11.73;;;2.83;;
12970;SDS011;6550;48.650;8.774;2023-04-06T14:23:52;9.20;;;3.00;;
12970;SDS011;6550;48.650;8.774;2023-04-06T14:26:20;17.37;;;3.13;;
12970;SDS011;6550;48.650;8.774;2023-04-06T14:28:47;11.07;;;3.70;;
12970;SDS011;6550;48.650;8.774;2023-04-06T14:31:14;8.40;;;3.28;;
12970;SDS011;6550;48.650;8.774;2023-04-06T14:33:42;9.00;;;2.90;;
12970;SDS011;6550;48.650;8.774;2023-04-06T14:36:09;12.13;;;2.90;;
12970;SDS011;6550;48.650;8.774;2023-04-06T14:38:37;8.57;;;3.20;;
12970;SDS011;6550;48.650;8.774;2023-04-06T14:41:05;4.77;;;2.70;;
12970;SDS011;6550;48.650;8.774;2023-04-06T14:43:35;4.03;;;2.80;;
12970;SDS011;6550;48.650;8.774;2023-04-06T14:46:02;9.50;;;3.17;;
12970;SDS011;6550;48.650;8.774;2023-04-06T14:48:29;5.47;;;2.90;;
12970;SDS011;6550;48.650;8.774;2023-04-06T14:50:58;3.50;;;2.30;;
12970;SDS011;6550;48.650;8.774;2023-04-06T14:53:27;4.90;;;2.70;;
12970;SDS011;6550;48.650;8.774;2023-04-06T14:55:56;4.13;;;2.73;;
12970;SDS011;6550;48.650;8.774;2023-04-06T14:58:27;4.77;;;2.53;;
12970;SDS011;6550;48.650;8.774;2023-04-06T15:00:57;3.27;;;2.63;;
12970;SDS011;6550;48.650;8.774;2023-04-06T15:03:28;3.27;;;2.17;;
12970;SDS011;6550;48.650;8.774;2023-04-06T15:05:57;4.73;;;2.30;;
12970;SDS011;6550;48.650;8.774;2023-04-06T15:08:24;3.23;;;2.30;;
12970;SDS011;6550;48.650;8.774;2023-04-06T15:10:53;2.67;;;1.97;;
12970;SDS011;6550;48.650;8.774;2023-04-06T15:13:24;2.97;;;1.93;;
12970;SDS011;6550;48.650;8.774;2023-04-06T15:15:51;3.87;;;2.00;;